< < Back
Terminal Aerodrome Forecast


Current Version              Previous Versions:   1  2  3  4  5  6  7  8  9  

Terminal Aerodrome Forecast

511
FTUS42 KGSP 212300
TAFGSP
TAF
KGSP 212337Z 2200/2224 36003KT P6SM FEW070 BKN250
     FM220700 29003KT P6SM FEW100 SCT250
     FM221300 36004KT P6SM FEW120 SCT250
     FM221800 25005KT P6SM FEW070 SCT250=

Latest METAR

088
SAUS70 KWBC 220300 RRL
MTRGSP
METAR KGSP 220253Z 00000KT 10SM CLR 26/22 A3009 RMK AO2 SLP176 T02560217
50001


USA.gov is the U.S. government's official web portal to all federal, state and local government web resources and services.